Time;durP1;ratioP1;P1;durP2;ratioP2;P2;SDS_P1;SDS_P2;PMS_P1;PMS_P2;Temp;Humidity;BMP_temperature;BMP_pressure;BME280_temperature;BME280_humidity;BME280_pressure;Samples;Min_cycle;Max_cycle;Signal;HPM_P1;HPM_P2
2022/01/29 00:01:18;;;;;;;8.57;4.70;;;;;;;-145.69;100.00;74366.41;5074209;28;20206;-75
2022/01/29 00:03:45;;;;;;;9.37;4.13;;;;;;;-145.69;100.00;74360.44;5073830;28;22133;-75
2022/01/29 00:06:12;;;;;;;15.50;5.90;;;;;;;-145.69;100.00;74358.44;5073947;28;20792;-75
2022/01/29 00:08:38;;;;;;;10.30;4.13;;;;;;;-145.69;100.00;74364.41;5073776;28;20230;-75
2022/01/29 00:11:10;;;;;;;6.23;3.47;;;;;;;-145.69;100.00;74386.31;5073818;28;20210;-75
2022/01/29 00:13:37;;;;;;;7.50;3.13;;;;;;;-145.69;100.00;74402.25;5073341;28;20245;-75
2022/01/29 00:16:04;;;;;;;7.53;2.73;;;;;;;-145.69;100.00;74404.22;5073876;28;20202;-74
2022/01/29 00:18:30;;;;;;;6.93;3.80;;;;;;;-145.69;100.00;74396.28;5073597;28;20206;-75
2022/01/29 00:20:58;;;;;;;6.37;3.13;;;;;;;-145.69;100.00;74384.31;5073669;28;20226;-75
2022/01/29 00:23:25;;;;;;;13.63;4.03;;;;;;;-145.69;100.00;74358.44;5073343;28;20202;-75
2022/01/29 00:25:51;;;;;;;12.80;3.63;;;;;;;-145.69;100.00;74378.34;5073770;28;20253;-75
2022/01/29 00:28:18;;;;;;;8.30;2.97;;;;;;;-145.69;100.00;74400.25;5073084;28;20219;-75
2022/01/29 00:30:45;;;;;;;6.63;3.07;;;;;;;-145.69;100.00;74378.34;5073621;28;20225;-74
2022/01/29 00:33:12;;;;;;;10.80;3.83;;;;;;;-145.69;100.00;74360.44;5073418;28;20202;-75
2022/01/29 00:35:39;;;;;;;11.70;4.23;;;;;;;-145.69;100.00;74360.44;5072404;28;20547;-74
2022/01/29 00:38:07;;;;;;;10.23;4.23;;;;;;;-145.69;100.00;74352.47;5073192;28;20209;-75
2022/01/29 00:40:36;;;;;;;11.00;3.97;;;;;;;-145.69;100.00;74360.44;5073211;28;20194;-75
2022/01/29 00:43:03;;;;;;;10.10;4.13;;;;;;;-145.69;100.00;74364.41;5071859;28;20561;-74
2022/01/29 00:45:30;;;;;;;9.93;4.10;;;;;;;-145.69;100.00;74348.47;5072850;28;20198;-74
2022/01/29 00:47:56;;;;;;;13.27;4.47;;;;;;;-145.69;100.00;74318.59;5073092;28;20264;-74
2022/01/29 00:50:23;;;;;;;14.87;4.97;;;;;;;-145.69;100.00;74316.63;5073154;28;20248;-74
2022/01/29 00:52:50;;;;;;;11.33;5.50;;;;;;;-145.69;100.00;74316.63;5072966;28;20566;-74
2022/01/29 00:55:17;;;;;;;13.60;4.80;;;;;;;-145.69;100.00;74306.66;5072760;28;20577;-74
2022/01/29 00:57:44;;;;;;;11.83;5.00;;;;;;;-145.69;100.00;74308.66;5072214;28;20210;-74
2022/01/29 01:00:13;;;;;;;19.33;5.07;;;;;;;-145.69;100.00;74300.69;5073038;28;20604;-75
2022/01/29 01:02:40;;;;;;;10.53;4.87;;;;;;;-145.69;100.00;74290.72;5072759;28;20196;-74
2022/01/29 01:05:08;;;;;;;15.03;4.63;;;;;;;-145.69;100.00;74290.72;5072606;28;20278;-74
2022/01/29 01:07:34;;;;;;;14.43;4.87;;;;;;;-145.69;100.00;74280.78;5072518;28;20581;-74
2022/01/29 01:10:01;;;;;;;11.03;5.20;;;;;;;-145.69;100.00;74286.75;5072590;28;20231;-74
2022/01/29 01:12:28;;;;;;;9.73;4.00;;;;;;;-145.69;100.00;74276.78;5072559;28;20202;-75
2022/01/29 01:14:55;;;;;;;10.07;4.70;;;;;;;-145.69;100.00;74288.75;5072948;28;20230;-74
2022/01/29 01:17:22;;;;;;;7.93;4.33;;;;;;;-145.69;100.00;74294.72;5073317;28;20289;-74
2022/01/29 01:19:49;;;;;;;6.97;3.37;;;;;;;-145.69;100.00;74296.69;5072738;28;20210;-74
2022/01/29 01:22:16;;;;;;;8.17;3.37;;;;;;;-145.69;100.00;74288.75;5072172;28;20205;-74
2022/01/29 01:24:43;;;;;;;10.00;3.57;;;;;;;-145.69;100.00;74304.66;5072621;28;20206;-74
2022/01/29 01:27:10;;;;;;;6.03;3.20;;;;;;;-145.69;100.00;74320.59;5072831;28;20608;-74
2022/01/29 01:29:38;;;;;;;10.13;3.97;;;;;;;-145.69;100.00;74302.69;5072472;28;20233;-76
2022/01/29 01:32:10;;;;;;;12.40;4.47;;;;;;;-145.69;100.00;74288.75;5072465;28;20210;-74
2022/01/29 01:34:39;;;;;;;12.07;3.90;;;;;;;-145.69;100.00;74282.75;5072581;28;20253;-74
2022/01/29 01:37:10;;;;;;;10.17;3.90;;;;;;;-145.69;100.00;74284.75;5072516;28;20745;-74
2022/01/29 01:39:40;;;;;;;11.67;4.53;;;;;;;-145.69;100.00;74276.78;5072312;28;20226;-75
2022/01/29 01:42:08;;;;;;;12.93;3.87;;;;;;;-145.69;100.00;74284.75;5072355;28;20195;-75
2022/01/29 01:44:36;;;;;;;11.37;4.20;;;;;;;-145.69;100.00;74284.75;5072706;28;20228;-74
2022/01/29 01:47:05;;;;;;;7.00;3.60;;;;;;;-145.69;100.00;74276.78;5063572;28;20204;-74
2022/01/29 01:49:32;;;;;;;6.40;3.60;;;;;;;-145.69;100.00;74260.84;5052598;28;20239;-76
2022/01/29 01:51:59;;;;;;;11.53;3.80;;;;;;;-145.69;100.00;74244.94;5052991;28;20217;-75
2022/01/29 01:54:25;;;;;;;11.47;4.07;;;;;;;-145.69;100.00;74240.94;5072645;28;20198;-75
2022/01/29 01:56:53;;;;;;;9.10;4.10;;;;;;;-145.69;100.00;74221.03;5070053;28;20203;-75
2022/01/29 01:59:20;;;;;;;7.80;3.67;;;;;;;-145.69;100.00;74205.09;5072143;28;20673;-74
2022/01/29 02:01:46;;;;;;;11.03;3.23;;;;;;;-145.69;100.00;74175.22;5072397;28;20225;-75
2022/01/29 02:04:14;;;;;;;13.30;4.23;;;;;;;-145.69;100.00;74169.25;5072250;28;20212;-75
2022/01/29 02:06:41;;;;;;;8.70;3.13;;;;;;;-145.69;100.00;74169.25;5072629;28;20203;-76
2022/01/29 02:09:08;;;;;;;7.43;2.90;;;;;;;-145.69;100.00;74161.28;5074257;28;20712;-76
2022/01/29 02:11:38;;;;;;;6.43;3.33;;;;;;;-145.69;100.00;74171.25;5076055;28;20578;-76
2022/01/29 02:14:04;;;;;;;9.33;3.73;;;;;;;-145.69;100.00;74165.28;5075986;28;20292;-76
2022/01/29 02:16:32;;;;;;;6.60;2.67;;;;;;;-145.69;100.00;74153.34;5075770;28;20207;-76
2022/01/29 02:18:58;;;;;;;5.70;2.70;;;;;;;-145.69;100.00;74143.38;5076064;28;20199;-76
2022/01/29 02:21:28;;;;;;;6.73;2.90;;;;;;;-145.69;100.00;74141.38;5075791;28;20191;-76
2022/01/29 02:23:55;;;;;;;13.10;3.63;;;;;;;-145.69;100.00;74133.41;5076336;28;20198;-76
2022/01/29 02:26:21;;;;;;;11.27;3.27;;;;;;;-145.69;100.00;74125.44;5075935;28;20206;-76
2022/01/29 02:28:48;;;;;;;4.87;2.23;;;;;;;-145.69;100.00;74123.47;5075536;28;20681;-76
2022/01/29 02:31:14;;;;;;;5.83;2.57;;;;;;;-145.69;100.00;74115.50;5075760;28;20207;-76
2022/01/29 02:33:41;;;;;;;7.67;3.10;;;;;;;-145.69;100.00;74109.53;5075617;28;20554;-76
2022/01/29 02:36:07;;;;;;;4.63;2.83;;;;;;;-145.69;100.00;74103.56;5075824;28;20198;-76
2022/01/29 02:38:35;;;;;;;5.20;2.80;;;;;;;-145.69;100.00;74103.56;5075313;28;20224;-76
2022/01/29 02:41:04;;;;;;;4.50;2.20;;;;;;;-145.69;100.00;74099.56;5075709;28;20207;-76
2022/01/29 02:43:37;;;;;;;4.80;2.60;;;;;;;-145.69;100.00;74081.66;5075227;28;20205;-76
2022/01/29 02:46:08;;;;;;;4.97;2.77;;;;;;;-145.69;100.00;74085.63;5075413;28;20209;-76
2022/01/29 02:48:35;;;;;;;5.60;2.40;;;;;;;-145.69;100.00;74071.69;5075298;28;20203;-76
2022/01/29 02:51:01;;;;;;;4.50;2.30;;;;;;;-145.69;100.00;74073.69;5075248;28;20202;-77
2022/01/29 02:53:30;;;;;;;5.43;2.50;;;;;;;-145.69;100.00;74073.69;5074987;28;20199;-77
2022/01/29 02:55:58;;;;;;;10.90;3.20;;;;;;;-145.69;100.00;74073.69;5075264;28;20203;-77
2022/01/29 02:58:24;;;;;;;5.73;2.23;;;;;;;-145.69;100.00;74067.72;5075156;28;20202;-76
2022/01/29 03:00:51;;;;;;;5.43;2.27;;;;;;;-145.69;100.00;74049.78;5075203;28;20195;-77
2022/01/29 03:03:17;;;;;;;8.00;2.17;;;;;;;-145.69;100.00;74053.78;5075181;28;20211;-76
2022/01/29 03:05:44;;;;;;;5.13;2.40;;;;;;;-145.69;100.00;74055.75;5075351;28;20210;-77
2022/01/29 03:08:10;;;;;;;5.67;2.40;;;;;;;-145.69;100.00;74057.75;5074851;28;20199;-76
2022/01/29 03:10:37;;;;;;;10.17;2.93;;;;;;;-145.69;100.00;74061.72;5074855;28;20233;-76
2022/01/29 03:13:05;;;;;;;6.93;2.77;;;;;;;-145.69;100.00;74063.72;5074468;28;20218;-76
2022/01/29 03:15:32;;;;;;;4.83;2.30;;;;;;;-145.69;100.00;74055.75;5074949;28;20653;-76
2022/01/29 03:17:58;;;;;;;6.40;2.50;;;;;;;-145.69;100.00;74049.78;5074351;28;20558;-76
2022/01/29 03:20:25;;;;;;;5.13;2.00;;;;;;;-145.69;100.00;74041.81;5074206;28;20211;-77
2022/01/29 03:22:52;;;;;;;3.40;2.00;;;;;;;-145.69;100.00;74037.84;5074654;28;20669;-76
2022/01/29 03:25:18;;;;;;;4.60;2.40;;;;;;;-145.69;100.00;74049.78;5075032;28;20229;-76
2022/01/29 03:27:47;;;;;;;3.17;2.03;;;;;;;-145.69;100.00;74055.75;5074362;28;20199;-76
2022/01/29 03:30:15;;;;;;;8.63;2.30;;;;;;;-145.69;100.00;74053.78;5074795;28;20249;-77
2022/01/29 03:32:43;;;;;;;5.37;2.20;;;;;;;-145.69;100.00;74041.81;5074536;28;20206;-76
2022/01/29 03:35:10;;;;;;;3.63;1.73;;;;;;;-145.69;100.00;74033.84;5074724;28;20202;-76
2022/01/29 03:37:36;;;;;;;7.00;2.27;;;;;;;-145.69;100.00;74035.84;5074103;28;20539;-77
2022/01/29 03:40:05;;;;;;;5.33;2.10;;;;;;;-145.69;100.00;74041.81;5074458;28;20218;-76
2022/01/29 03:42:37;;;;;;;6.00;2.23;;;;;;;-145.69;100.00;74047.78;5074402;28;20207;-76
2022/01/29 03:45:06;;;;;;;6.07;2.30;;;;;;;-145.69;100.00;74053.78;5074394;28;20202;-76
2022/01/29 03:47:34;;;;;;;6.13;2.33;;;;;;;-145.69;100.00;74049.78;5063640;28;20291;-76
2022/01/29 03:50:01;;;;;;;5.07;1.90;;;;;;;-145.69;100.00;74047.78;5053815;28;20227;-77
2022/01/29 03:52:27;;;;;;;4.00;2.00;;;;;;;-145.69;100.00;74041.81;5054101;28;20265;-76
2022/01/29 03:54:53;;;;;;;8.47;1.87;;;;;;;-145.69;100.00;74029.88;5054434;28;20203;-76
2022/01/29 03:57:20;;;;;;;2.00;1.60;;;;;;;-145.69;100.00;74031.88;5064067;28;20577;-76
2022/01/29 03:59:47;;;;;;;2.37;1.67;;;;;;;-145.69;100.00;74017.94;5074095;28;20562;-76
2022/01/29 04:02:13;;;;;;;4.87;1.80;;;;;;;-145.69;100.00;74009.97;5074115;28;20201;-76
2022/01/29 04:04:41;;;;;;;4.63;1.40;;;;;;;-145.69;100.00;73994.03;5073665;28;20206;-76
2022/01/29 04:07:11;;;;;;;6.23;1.70;;;;;;;-145.69;100.00;73984.09;5073614;28;20199;-76
2022/01/29 04:09:39;;;;;;;6.70;2.03;;;;;;;-145.69;100.00;73988.06;5074080;28;20237;-76
2022/01/29 04:12:06;;;;;;;4.50;1.87;;;;;;;-145.69;100.00;73980.09;5073544;28;20206;-76
2022/01/29 04:14:37;;;;;;;6.07;1.70;;;;;;;-145.69;100.00;73972.13;5073661;28;20230;-76
2022/01/29 04:17:04;;;;;;;2.80;1.60;;;;;;;-145.69;100.00;73978.09;5073499;28;20244;-76
2022/01/29 04:19:30;;;;;;;5.60;1.80;;;;;;;-145.69;100.00;73982.09;5073520;28;20260;-76
2022/01/29 04:21:58;;;;;;;3.77;1.47;;;;;;;-145.69;100.00;73984.09;5073234;28;20198;-76
2022/01/29 04:24:25;;;;;;;2.43;1.03;;;;;;;-145.69;100.00;73966.16;5073405;28;20282;-76
2022/01/29 04:26:51;;;;;;;4.17;1.27;;;;;;;-145.69;100.00;73968.16;5073184;28;20191;-76
2022/01/29 04:29:19;;;;;;;2.20;1.37;;;;;;;-145.69;100.00;73972.13;5073267;28;20672;-76
2022/01/29 04:31:58;;;;;;;2.17;1.20;;;;;;;-145.69;100.00;73984.09;5071905;28;20195;-77
2022/01/29 04:34:25;;;;;;;4.10;1.10;;;;;;;-145.69;100.00;73970.16;5073214;28;20711;-77
2022/01/29 04:36:51;;;;;;;1.60;1.10;;;;;;;-145.69;100.00;73960.19;5073198;28;20202;-76
2022/01/29 04:39:19;;;;;;;2.83;1.40;;;;;;;-145.69;100.00;73950.22;5073176;28;20215;-76
2022/01/29 04:41:46;;;;;;;1.53;0.97;;;;;;;-145.69;100.00;73918.38;5072987;28;20206;-76
2022/01/29 04:44:12;;;;;;;0.97;0.90;;;;;;;-145.69;100.00;73910.41;5073214;28;20206;-76
2022/01/29 04:46:39;;;;;;;2.10;1.00;;;;;;;-145.69;100.00;73910.41;5073207;28;20205;-76
2022/01/29 04:49:05;;;;;;;5.17;1.20;;;;;;;-145.69;100.00;73924.34;5072828;28;20568;-76
2022/01/29 04:51:31;;;;;;;1.03;1.00;;;;;;;-145.69;100.00;73924.34;5072877;28;20677;-76
2022/01/29 04:53:58;;;;;;;1.53;0.90;;;;;;;-145.69;100.00;73932.31;5073057;28;20198;-77
2022/01/29 04:56:26;;;;;;;1.83;1.00;;;;;;;-145.69;100.00;73938.28;5072982;28;20210;-76
2022/01/29 04:58:52;;;;;;;1.40;0.90;;;;;;;-145.69;100.00;73930.31;5072811;28;20221;-77
2022/01/29 05:01:18;;;;;;;2.13;0.90;;;;;;;-145.69;100.00;73926.34;5072562;28;20198;-76
2022/01/29 05:03:45;;;;;;;2.67;0.93;;;;;;;-145.69;100.00;73914.38;5073204;28;20207;-76
2022/01/29 05:06:12;;;;;;;0.90;0.90;;;;;;;-145.69;100.00;73914.38;5072793;28;20199;-76
2022/01/29 05:08:39;;;;;;;2.50;0.70;;;;;;;-145.69;100.00;73900.44;5072727;28;20194;-76
2022/01/29 05:11:07;;;;;;;1.43;1.00;;;;;;;-145.69;100.00;73894.47;5072394;28;20222;-76
2022/01/29 05:13:38;;;;;;;1.27;0.90;;;;;;;-145.69;100.00;73888.50;5072655;28;20578;-76
2022/01/29 05:16:31;;;;;;;1.63;0.90;;;;;;;-145.69;100.00;73886.50;5072587;28;20279;-76
2022/01/29 05:27:09;;;;;;;1.10;1.00;;;;;;;-145.69;100.00;73914.38;5072700;28;20229;-76
2022/01/29 05:29:37;;;;;;;2.63;0.87;;;;;;;-145.69;100.00;73918.38;5072605;28;20254;-76
2022/01/29 05:32:06;;;;;;;3.00;1.00;;;;;;;-145.69;100.00;73924.34;5072074;28;20191;-76
2022/01/29 05:34:33;;;;;;;0.77;0.70;;;;;;;-145.69;100.00;73904.44;5072746;28;20225;-76
2022/01/29 05:37:00;;;;;;;2.40;0.87;;;;;;;-145.69;100.00;73886.50;5072798;28;20206;-76
2022/01/29 05:39:27;;;;;;;1.03;0.80;;;;;;;-145.69;95.27;73872.56;5072704;28;20268;-76
2022/01/29 05:41:54;;;;;;;1.23;0.83;;;;;;;-145.69;98.57;73870.59;5072224;28;20566;-76
2022/01/29 05:44:21;;;;;;;1.27;0.87;;;;;;;-145.69;91.09;73862.63;5075606;28;20226;-76
2022/01/29 05:46:49;;;;;;;2.50;0.90;;;;;;;-145.69;89.75;73850.69;5076499;28;20199;-76
2022/01/29 05:49:16;;;;;;;0.70;0.70;;;;;;;-145.69;90.42;73844.69;5076606;28;20195;-76
2022/01/29 05:51:42;;;;;;;1.83;0.67;;;;;;;-145.69;87.75;73828.78;5076183;28;20302;-76
2022/01/29 05:54:09;;;;;;;1.70;1.10;;;;;;;-145.69;100.00;73858.63;5070022;28;20215;-76
2022/01/29 05:56:35;;;;;;;0.90;0.90;;;;;;;-145.69;100.00;73880.53;5076393;28;20255;-76
2022/01/29 05:59:02;;;;;;;0.60;0.60;;;;;;;-145.69;97.08;73870.59;5076364;28;20565;-76
2022/01/29 06:01:28;;;;;;;0.60;0.60;;;;;;;-145.69;89.20;73856.66;5076053;28;20222;-76
2022/01/29 06:03:56;;;;;;;0.90;0.90;;;;;;;-145.69;91.25;73846.69;5076246;28;20203;-76
2022/01/29 06:06:23;;;;;;;0.70;0.70;;;;;;;-145.69;87.74;73842.72;5076419;28;20211;-76
2022/01/29 06:08:49;;;;;;;0.60;0.60;;;;;;;-145.69;82.73;73812.84;5075977;28;20195;-76
2022/01/29 06:11:16;;;;;;;0.87;0.80;;;;;;;-145.69;77.73;73767.06;5076209;28;20202;-77
2022/01/29 06:13:43;;;;;;;1.20;1.10;;;;;;;-145.69;76.38;73741.16;5076052;28;20234;-77
2022/01/29 06:16:10;;;;;;;1.17;0.90;;;;;;;-145.69;78.80;73737.19;5076247;28;20654;-76
2022/01/29 06:18:37;;;;;;;0.77;0.70;;;;;;;-145.69;78.49;73749.13;5076082;28;20199;-77
2022/01/29 06:21:08;;;;;;;0.77;0.77;;;;;;;-145.69;82.46;73757.09;5075925;28;20206;-76
2022/01/29 06:23:37;;;;;;;1.37;0.60;;;;;;;-145.69;76.71;73753.13;5076016;28;20727;-77
2022/01/29 06:26:05;;;;;;;0.77;0.77;;;;;;;-145.69;77.07;73709.31;5076226;28;20199;-77
2022/01/29 06:28:32;;;;;;;1.63;0.80;;;;;;;-145.69;69.62;73675.47;5075752;28;20197;-76
2022/01/29 06:30:59;;;;;;;1.00;0.80;;;;;;;-145.69;69.48;73667.50;5075908;28;20748;-77
2022/01/29 06:33:26;;;;;;;0.63;0.63;;;;;;;-145.69;64.71;73637.63;5075691;28;20656;-77
2022/01/29 06:35:52;;;;;;;1.70;0.93;;;;;;;-145.69;67.42;73637.63;5075907;28;20209;-77
2022/01/29 06:38:21;;;;;;;1.20;0.70;;;;;;;-145.69;71.71;73643.59;5075542;28;20202;-77
2022/01/29 06:40:48;;;;;;;0.63;0.63;;;;;;;-145.69;69.97;73653.56;5075847;28;20214;-77
2022/01/29 06:43:14;;;;;;;1.57;0.80;;;;;;;-145.69;74.43;73663.53;5075361;28;20202;-77
2022/01/29 06:45:43;;;;;;;0.73;0.70;;;;;;;-145.69;73.30;73667.50;5076028;28;20206;-77
2022/01/29 06:48:09;;;;;;;1.43;0.93;;;;;;;-145.69;74.19;73675.47;5075612;28;20198;-76
2022/01/29 06:50:36;;;;;;;0.63;0.60;;;;;;;-145.69;71.36;73673.47;5075689;28;20317;-76
2022/01/29 06:53:03;;;;;;;0.73;0.70;;;;;;;-145.69;71.47;73673.47;5075514;28;20565;-77
2022/01/29 06:55:31;;;;;;;0.77;0.70;;;;;;;-145.69;71.67;73673.47;5074252;28;20600;-77
2022/01/29 06:57:58;;;;;;;0.70;0.70;;;;;;;-145.69;71.65;73677.47;5075786;28;20205;-76
2022/01/29 07:00:25;;;;;;;0.70;0.70;;;;;;;-145.69;69.27;73661.53;5075224;28;20210;-77
2022/01/29 07:02:51;;;;;;;0.60;0.60;;;;;;;-145.69;68.10;73643.59;5075332;28;20582;-77
2022/01/29 07:05:18;;;;;;;2.20;0.97;;;;;;;-145.69;65.51;73629.66;5075356;28;20653;-76
2022/01/29 07:07:44;;;;;;;1.73;0.80;;;;;;;-145.69;65.06;73613.75;5075362;28;20194;-76
2022/01/29 07:10:11;;;;;;;1.33;0.90;;;;;;;-145.69;67.61;73607.78;5074803;28;20684;-76
2022/01/29 07:12:40;;;;;;;2.90;1.03;;;;;;;-145.69;63.59;73601.81;5075318;28;20199;-76
2022/01/29 07:15:08;;;;;;;2.93;0.90;;;;;;;-145.69;63.80;73593.84;5075078;28;20231;-77
2022/01/29 07:17:35;;;;;;;1.03;0.83;;;;;;;-145.69;60.08;73558.00;5075445;28;20560;-77
2022/01/29 07:20:01;;;;;;;0.97;0.70;;;;;;;-145.69;60.07;73567.94;5075037;28;20214;-76
2022/01/29 07:22:28;;;;;;;1.10;0.80;;;;;;;-145.69;59.70;73579.91;5075154;28;20317;-78
2022/01/29 07:24:54;;;;;;;0.80;0.80;;;;;;;-145.69;60.04;73567.94;5074751;28;20202;-77
2022/01/29 07:27:21;;;;;;;1.17;0.77;;;;;;;-145.69;61.70;73563.97;5074940;28;20360;-77
2022/01/29 07:29:49;;;;;;;2.40;1.10;;;;;;;-145.69;62.22;73544.06;5074694;28;20653;-77
2022/01/29 07:32:15;;;;;;;2.97;1.07;;;;;;;-145.69;63.31;73558.00;5075095;28;20202;-77
2022/01/29 07:34:42;;;;;;;1.17;0.93;;;;;;;-145.69;61.41;73575.91;5074896;28;20225;-77
2022/01/29 07:37:08;;;;;;;1.40;1.00;;;;;;;-145.69;62.01;73583.88;5074872;28;20202;-77
2022/01/29 07:39:35;;;;;;;1.20;0.80;;;;;;;-145.69;61.65;73567.94;5074130;28;20304;-77
2022/01/29 07:42:02;;;;;;;1.00;0.70;;;;;;;-145.69;61.40;73567.94;5074444;28;20260;-76
2022/01/29 07:44:30;;;;;;;0.73;0.73;;;;;;;-145.69;61.66;73579.91;5074987;28;20209;-77
2022/01/29 07:47:02;;;;;;;1.53;0.90;;;;;;;-145.69;64.53;73593.84;5074744;28;20210;-77
2022/01/29 07:49:29;;;;;;;1.60;1.00;;;;;;;-145.69;66.42;73607.78;5074480;28;20194;-78
2022/01/29 07:51:55;;;;;;;0.93;0.87;;;;;;;-145.69;64.80;73609.75;5070148;28;20223;-76
2022/01/29 07:54:21;;;;;;;1.87;0.90;;;;;;;-145.69;63.70;73595.81;5074603;28;20202;-77
2022/01/29 07:56:48;;;;;;;1.80;1.10;;;;;;;-145.69;65.29;73611.75;5074502;28;20718;-77
2022/01/29 07:59:14;;;;;;;1.80;1.03;;;;;;;-145.69;70.24;73621.72;5074167;28;20207;-77
2022/01/29 08:01:41;;;;;;;3.00;1.33;;;;;;;-145.69;67.35;73615.72;5074434;28;20207;-77
2022/01/29 08:04:08;;;;;;;2.30;1.10;;;;;;;-145.69;69.32;73631.66;5074248;28;20203;-77
2022/01/29 08:06:35;;;;;;;2.37;1.23;;;;;;;-145.69;71.12;73649.59;5073522;28;20206;-77
2022/01/29 08:09:01;;;;;;;3.93;1.60;;;;;;;-145.69;74.34;73657.53;5074301;28;20639;-77
2022/01/29 08:11:28;;;;;;;3.47;1.87;;;;;;;-145.69;75.61;73671.47;5074018;28;20590;-77
2022/01/29 08:13:54;;;;;;;3.13;1.63;;;;;;;-145.69;76.89;73691.38;5073670;28;20227;-77
2022/01/29 08:16:21;;;;;;;6.33;1.80;;;;;;;-145.69;78.24;73719.25;5073586;28;20195;-76
2022/01/29 08:18:47;;;;;;;2.77;1.93;;;;;;;-145.69;79.31;73725.25;5073919;28;20206;-76
2022/01/29 08:21:16;;;;;;;6.03;2.23;;;;;;;-145.69;79.42;73723.25;5073954;28;20248;-77
2022/01/29 08:23:43;;;;;;;6.07;1.87;;;;;;;-145.69;80.54;73727.22;5073798;28;20206;-76
2022/01/29 08:26:11;;;;;;;3.17;1.73;;;;;;;-145.69;82.32;73735.19;5073336;28;20199;-77
2022/01/29 08:28:37;;;;;;;4.53;1.97;;;;;;;-145.69;83.43;73747.13;5073785;28;20199;-76
2022/01/29 08:31:05;;;;;;;3.20;1.70;;;;;;;-145.69;85.24;73755.09;5073540;28;20219;-77
2022/01/29 08:33:31;;;;;;;2.77;1.70;;;;;;;-145.69;85.86;73767.06;5073513;28;20201;-77
2022/01/29 08:35:58;;;;;;;2.80;1.47;;;;;;;-145.69;84.24;73765.06;5073438;28;20274;-76
2022/01/29 08:38:26;;;;;;;4.53;1.80;;;;;;;-145.69;83.87;73759.09;5073707;28;20198;-78
2022/01/29 08:40:54;;;;;;;3.80;1.77;;;;;;;-145.69;83.75;73745.16;5073396;28;20661;-77
2022/01/29 08:43:21;;;;;;;6.13;1.50;;;;;;;-145.69;84.58;73741.16;5073516;28;20203;-76
2022/01/29 08:45:48;;;;;;;7.27;1.90;;;;;;;-145.69;84.91;73749.13;5073219;28;20198;-77
2022/01/29 08:48:15;;;;;;;4.93;2.33;;;;;;;-145.69;86.07;73759.09;5073232;28;20194;-78
2022/01/29 08:50:41;;;;;;;5.03;2.17;;;;;;;-145.69;87.14;73757.09;5073448;28;20231;-77
2022/01/29 08:53:08;;;;;;;5.57;2.30;;;;;;;-145.69;87.24;73751.13;5073645;28;20730;-77
2022/01/29 08:55:37;;;;;;;4.47;1.90;;;;;;;-145.69;87.51;73759.09;5072983;28;20191;-75
2022/01/29 08:58:04;;;;;;;5.07;2.20;;;;;;;-145.69;87.62;73755.09;5073048;28;20199;-75
2022/01/29 09:00:31;;;;;;;4.23;1.77;;;;;;;-145.69;88.79;73751.13;5072682;28;20771;-77
2022/01/29 09:02:57;;;;;;;2.93;1.83;;;;;;;-145.69;85.38;73747.13;5073357;28;20198;-77
2022/01/29 09:05:24;;;;;;;5.73;2.23;;;;;;;-145.69;86.07;73739.19;5073213;28;20195;-77
2022/01/29 09:07:50;;;;;;;3.17;2.10;;;;;;;-145.69;88.01;73743.16;5073083;28;20209;-77
2022/01/29 09:10:17;;;;;;;5.07;2.30;;;;;;;-145.69;89.72;73743.16;5072828;28;20206;-77
2022/01/29 09:12:45;;;;;;;3.73;2.30;;;;;;;-145.69;88.98;73725.25;5073105;28;20213;-77
2022/01/29 09:15:12;;;;;;;4.43;2.60;;;;;;;-145.69;88.87;73711.31;5073072;28;20242;-77
2022/01/29 09:17:39;;;;;;;5.17;2.50;;;;;;;-145.69;86.98;73721.25;5072828;28;20203;-79
2022/01/29 09:20:07;;;;;;;5.13;2.80;;;;;;;-145.69;88.30;73699.34;5072887;28;20218;-77
2022/01/29 09:22:34;;;;;;;5.70;2.53;;;;;;;-145.69;86.85;73697.38;5072740;28;20210;-77
2022/01/29 09:25:00;;;;;;;3.40;2.27;;;;;;;-145.69;85.44;73675.47;5072848;28;20218;-79
2022/01/29 09:27:27;;;;;;;5.77;2.83;;;;;;;-145.69;85.49;73663.53;5072863;28;20206;-78
2022/01/29 09:29:54;;;;;;;4.90;2.70;;;;;;;-145.69;81.42;73645.59;5072473;28;20581;-76
2022/01/29 09:32:24;;;;;;;3.27;2.17;;;;;;;-145.69;80.52;73625.69;5072669;28;20697;-77
2022/01/29 09:34:50;;;;;;;4.80;2.20;;;;;;;-145.69;79.34;73611.75;5072678;28;20713;-77
2022/01/29 09:37:17;;;;;;;4.37;2.10;;;;;;;-145.69;78.77;73635.66;5072768;28;20207;-77
2022/01/29 09:39:43;;;;;;;7.27;1.70;;;;;;;-145.69;76.36;73635.66;5072443;28;20202;-78
2022/01/29 09:42:11;;;;;;;3.13;1.57;;;;;;;-145.69;75.38;73631.66;5072847;28;20676;-77
2022/01/29 09:44:38;;;;;;;2.90;1.53;;;;;;;-145.69;77.00;73627.69;5073164;28;20203;-77
2022/01/29 09:47:06;;;;;;;3.57;1.80;;;;;;;-145.69;75.87;73627.69;5072581;28;20195;-76
2022/01/29 09:49:33;;;;;;;1.90;1.47;;;;;;;-145.69;76.84;73615.72;5072903;28;20198;-76
2022/01/29 09:52:00;;;;;;;2.40;1.47;;;;;;;-145.69;74.12;73611.75;5065157;28;20612;-77
2022/01/29 09:54:26;;;;;;;3.50;1.83;;;;;;;-145.69;72.11;73603.78;5072731;28;20207;-75
2022/01/29 09:56:53;;;;;;;1.93;1.30;;;;;;;-145.69;71.99;73595.81;5072077;28;20199;-77
2022/01/29 09:59:19;;;;;;;3.10;1.50;;;;;;;-145.69;73.72;73589.84;5072442;28;20203;-76
2022/01/29 10:01:47;;;;;;;2.20;1.30;;;;;;;-145.69;68.13;73571.94;5072672;28;20202;-75
2022/01/29 10:04:14;;;;;;;3.23;1.30;;;;;;;-145.69;68.12;73565.97;5072652;28;20256;-75
2022/01/29 10:06:43;;;;;;;4.90;1.10;;;;;;;-145.69;68.27;73544.06;5072572;28;20199;-77
2022/01/29 10:09:12;;;;;;;2.37;1.30;;;;;;;-145.69;68.42;73524.16;5072659;28;20205;-77
2022/01/29 10:11:41;;;;;;;5.53;1.30;;;;;;;-145.69;67.91;73488.31;5072653;28;20233;-76
2022/01/29 10:14:07;;;;;;;1.20;0.90;;;;;;;-145.69;65.93;73464.44;5072443;28;20235;-77
2022/01/29 10:16:40;;;;;;;3.33;1.27;;;;;;;-145.69;67.65;73444.50;5072767;28;20604;-77
2022/01/29 10:19:09;;;;;;;3.50;1.70;;;;;;;-145.69;67.64;73428.59;5072237;28;20665;-77
2022/01/29 10:21:41;;;;;;;3.23;1.50;;;;;;;-145.69;66.73;73408.69;5072430;28;20199;-78
2022/01/29 10:24:09;;;;;;;1.00;0.90;;;;;;;-145.69;66.07;73408.69;5072665;28;20218;-77
2022/01/29 10:26:37;;;;;;;1.33;0.97;;;;;;;-145.69;64.87;73394.75;5072561;28;20207;-77
2022/01/29 10:29:06;;;;;;;2.30;1.47;;;;;;;-145.69;66.97;73364.88;5072845;28;20198;-77
2022/01/29 10:31:41;;;;;;;1.20;0.97;;;;;;;-145.69;65.31;73346.97;5076354;28;20341;-78
2022/01/29 10:34:21;;;;;;;1.90;1.20;;;;;;;-145.69;64.51;73341.00;5076221;28;20236;-78
2022/01/29 10:37:13;;;;;;;2.40;1.10;;;;;;;-145.69;62.24;73319.09;5075970;28;20530;-77
2022/01/29 10:39:40;;;;;;;2.50;1.50;;;;;;;-145.69;64.14;73283.25;5075851;28;20210;-78
2022/01/29 10:42:15;;;;;;;4.57;1.73;;;;;;;-145.69;69.12;73269.31;5075816;28;20256;-77
2022/01/29 10:44:44;;;;;;;2.83;1.40;;;;;;;-145.69;68.97;73269.31;5075808;28;20194;-77
2022/01/29 10:47:10;;;;;;;2.40;1.13;;;;;;;-145.69;70.03;73283.25;5076036;28;20206;-78
2022/01/29 10:49:39;;;;;;;1.03;0.90;;;;;;;-145.69;73.61;73261.34;5075739;28;20191;-77
2022/01/29 10:52:10;;;;;;;1.00;0.70;;;;;;;-145.69;72.59;73261.34;5075392;28;20572;-76
2022/01/29 10:54:38;;;;;;;1.63;0.93;;;;;;;-145.69;73.70;73257.38;5075677;28;20660;-77
2022/01/29 10:57:06;;;;;;;3.57;1.00;;;;;;;-145.69;73.52;73255.38;5075564;28;20203;-76
2022/01/29 10:59:34;;;;;;;1.30;1.00;;;;;;;-145.69;73.93;73261.34;5075786;28;20199;-77
2022/01/29 11:02:02;;;;;;;0.80;0.73;;;;;;;-145.69;75.36;73263.34;5075598;28;20199;-77
2022/01/29 11:04:31;;;;;;;5.90;0.97;;;;;;;-145.69;76.35;73253.41;5075581;28;20285;-78
2022/01/29 11:07:02;;;;;;;3.03;1.00;;;;;;;-145.69;77.26;73235.47;5075390;28;20203;-78
2022/01/29 11:09:33;;;;;;;1.67;0.80;;;;;;;-145.69;77.43;73225.53;5075530;28;20203;-78
2022/01/29 11:12:03;;;;;;;0.97;0.60;;;;;;;-145.69;84.46;73243.44;5074964;28;20218;-78
2022/01/29 11:14:31;;;;;;;1.03;0.70;;;;;;;-145.69;89.14;73255.38;5075183;28;20226;-77
2022/01/29 11:17:00;;;;;;;0.73;0.73;;;;;;;-145.69;88.41;73237.47;5075180;28;20229;-77
2022/01/29 11:19:26;;;;;;;2.20;0.90;;;;;;;-145.69;88.70;73231.50;5074812;28;20543;-77
2022/01/29 11:21:55;;;;;;;0.70;0.70;;;;;;;-145.69;88.46;73213.56;5074809;28;20705;-77